Time;durP1;ratioP1;P1;durP2;ratioP2;P2;SDS_P1;SDS_P2;PMS_P1;PMS_P2;Temp;Humidity;BMP_temperature;BMP_pressure;BME280_temperature;BME280_humidity;BME280_pressure;Samples;Min_cycle;Max_cycle;Signal;HPM_P1;HPM_P2
2021/06/13 00:00:01;;;;;;;10.73;6.05;;;;;;;;;;5071805;28;20469;-72
2021/06/13 00:02:27;;;;;;;8.00;5.63;;;;;;;;;;5058030;28;20029;-66
2021/06/13 00:04:53;;;;;;;8.68;5.88;;;;;;;;;;5072032;28;20035;-63
2021/06/13 00:07:20;;;;;;;8.07;5.50;;;;;;;;;;5068778;28;20089;-71
2021/06/13 00:09:46;;;;;;;6.68;4.72;;;;;;;;;;5060854;28;20103;-63
2021/06/13 00:12:12;;;;;;;6.75;5.05;;;;;;;;;;5064775;28;20051;-71
2021/06/13 00:14:38;;;;;;;7.03;4.95;;;;;;;;;;5072490;28;20036;-64
2021/06/13 00:17:05;;;;;;;8.00;5.53;;;;;;;;;;5064067;28;20103;-66
2021/06/13 00:19:31;;;;;;;9.38;5.10;;;;;;;;;;5060503;28;20484;-63
2021/06/13 00:22:11;;;;;;;8.18;4.95;;;;;;;;;;5077975;28;20021;-73
2021/06/13 00:24:40;;;;;;;7.47;4.90;;;;;;;;;;5076959;28;20028;-72
2021/06/13 00:27:06;;;;;;;7.45;4.80;;;;;;;;;;5071002;28;20032;-72
2021/06/13 00:29:32;;;;;;;6.38;5.03;;;;;;;;;;5065135;28;20032;-64
2021/06/13 00:31:58;;;;;;;7.28;4.90;;;;;;;;;;5070266;28;20047;-73
2021/06/13 00:34:24;;;;;;;7.55;5.20;;;;;;;;;;5069997;28;20032;-73
2021/06/13 00:36:51;;;;;;;7.85;5.45;;;;;;;;;;5065800;28;20029;-73
2021/06/13 00:39:18;;;;;;;7.65;5.43;;;;;;;;;;5066099;28;20086;-64
2021/06/13 00:41:44;;;;;;;8.77;5.70;;;;;;;;;;5061529;28;20382;-73
2021/06/13 00:44:10;;;;;;;8.73;5.43;;;;;;;;;;5070225;28;20055;-68
2021/06/13 00:46:36;;;;;;;5.80;4.75;;;;;;;;;;5069855;28;20452;-64
2021/06/13 00:49:02;;;;;;;6.53;4.93;;;;;;;;;;5071195;28;20017;-73
2021/06/13 00:51:28;;;;;;;7.30;5.25;;;;;;;;;;5066468;28;20504;-72
2021/06/13 00:53:54;;;;;;;6.00;4.78;;;;;;;;;;5073006;28;20024;-65
2021/06/13 00:56:20;;;;;;;7.97;4.60;;;;;;;;;;5071250;28;20028;-72
2021/06/13 00:58:47;;;;;;;7.18;4.80;;;;;;;;;;5071981;28;20059;-70
2021/06/13 01:01:13;;;;;;;7.63;4.90;;;;;;;;;;5061554;28;20025;-73
2021/06/13 01:03:39;;;;;;;5.80;4.82;;;;;;;;;;5073048;28;20024;-72
2021/06/13 01:06:05;;;;;;;7.53;5.10;;;;;;;;;;5066533;28;20051;-73
2021/06/13 01:08:34;;;;;;;6.28;4.80;;;;;;;;;;5072602;28;20029;-73
2021/06/13 01:11:19;;;;;;;6.57;4.78;;;;;;;;;;5065389;28;20099;-67
2021/06/13 01:13:54;;;;;;;6.40;4.80;;;;;;;;;;5059312;28;20028;-63
2021/06/13 01:16:20;;;;;;;6.80;5.03;;;;;;;;;;5061360;28;20033;-64
2021/06/13 01:18:49;;;;;;;8.30;5.20;;;;;;;;;;5059373;28;20070;-64
2021/06/13 01:21:26;;;;;;;7.38;4.72;;;;;;;;;;5068429;28;20017;-63
2021/06/13 01:23:55;;;;;;;7.30;4.70;;;;;;;;;;5072585;28;20040;-71
2021/06/13 01:26:42;;;;;;;6.10;4.60;;;;;;;;;;5071448;28;20040;-72
2021/06/13 01:29:09;;;;;;;6.13;4.80;;;;;;;;;;5068198;28;20032;-67
2021/06/13 01:31:41;;;;;;;5.18;4.63;;;;;;;;;;5065061;28;20032;-72
2021/06/13 01:34:09;;;;;;;8.10;4.30;;;;;;;;;;5057303;28;20504;-72
2021/06/13 01:36:36;;;;;;;7.32;4.95;;;;;;;;;;5069882;28;20024;-64
2021/06/13 01:39:07;;;;;;;6.60;4.55;;;;;;;;;;5071005;28;20029;-63
2021/06/13 01:41:35;;;;;;;5.57;4.43;;;;;;;;;;5062280;28;20046;-73
2021/06/13 01:44:01;;;;;;;8.50;4.82;;;;;;;;;;5068713;28;20032;-64
2021/06/13 01:46:38;;;;;;;6.22;4.53;;;;;;;;;;5084539;28;20045;-73
2021/06/13 01:49:06;;;;;;;6.25;4.50;;;;;;;;;;5067868;28;20412;-73
2021/06/13 01:51:33;;;;;;;6.85;4.90;;;;;;;;;;5072808;28;20028;-63
2021/06/13 01:54:16;;;;;;;10.70;4.57;;;;;;;;;;5069599;28;20021;-69
2021/06/13 01:56:48;;;;;;;5.10;4.53;;;;;;;;;;5072594;28;20056;-67
2021/06/13 01:59:15;;;;;;;7.65;4.63;;;;;;;;;;5071629;28;20050;-72
2021/06/13 02:01:44;;;;;;;10.85;5.13;;;;;;;;;;5073087;28;20055;-70
2021/06/13 02:04:13;;;;;;;13.63;5.82;;;;;;;;;;5067671;28;20032;-64
2021/06/13 02:06:42;;;;;;;12.35;6.72;;;;;;;;;;5070515;28;20071;-63
2021/06/13 02:09:09;;;;;;;8.80;7.47;;;;;;;;;;5069629;28;20031;-71
2021/06/13 02:11:35;;;;;;;11.73;7.60;;;;;;;;;;5067862;28;20432;-72
2021/06/13 02:14:04;;;;;;;10.15;7.85;;;;;;;;;;5071869;28;20025;-73
2021/06/13 02:16:35;;;;;;;13.25;8.40;;;;;;;;;;5066358;28;20445;-71
2021/06/13 02:19:02;;;;;;;10.88;9.02;;;;;;;;;;5058882;28;20035;-63
2021/06/13 02:21:29;;;;;;;10.38;8.38;;;;;;;;;;5072088;28;20033;-69
2021/06/13 02:23:55;;;;;;;8.88;7.80;;;;;;;;;;5071317;28;20100;-65
2021/06/13 02:26:22;;;;;;;11.23;7.90;;;;;;;;;;5066772;28;20454;-63
2021/06/13 02:28:51;;;;;;;10.80;8.10;;;;;;;;;;5070426;28;20081;-67
2021/06/13 02:31:19;;;;;;;11.35;7.95;;;;;;;;;;5071896;28;20039;-71
2021/06/13 02:33:47;;;;;;;9.68;8.07;;;;;;;;;;5071992;28;20047;-72
2021/06/13 02:36:14;;;;;;;9.55;7.55;;;;;;;;;;5066775;28;20028;-73
2021/06/13 02:38:56;;;;;;;9.20;7.82;;;;;;;;;;5069803;28;20023;-72
2021/06/13 02:41:24;;;;;;;9.10;8.20;;;;;;;;;;5070158;28;20548;-73
2021/06/13 02:43:51;;;;;;;12.52;8.57;;;;;;;;;;5068425;28;20071;-72
2021/06/13 02:46:17;;;;;;;9.32;8.13;;;;;;;;;;5071720;28;20063;-73
2021/06/13 02:48:43;;;;;;;10.77;8.45;;;;;;;;;;5067297;28;20105;-72
2021/06/13 02:51:10;;;;;;;10.63;8.32;;;;;;;;;;5066676;28;20028;-72
2021/06/13 02:53:43;;;;;;;10.90;9.20;;;;;;;;;;5067699;28;20029;-73
2021/06/13 02:56:12;;;;;;;12.48;9.75;;;;;;;;;;5060829;28;20108;-64
2021/06/13 02:58:42;;;;;;;11.15;9.88;;;;;;;;;;5079336;28;20052;-73
2021/06/13 03:01:10;;;;;;;10.52;9.43;;;;;;;;;;5067379;28;20024;-64
2021/06/13 03:03:36;;;;;;;10.50;9.38;;;;;;;;;;5071781;28;20103;-72
2021/06/13 03:06:19;;;;;;;11.05;9.85;;;;;;;;;;5070123;28;20064;-69
2021/06/13 03:08:45;;;;;;;10.88;9.57;;;;;;;;;;5063257;28;20397;-63
2021/06/13 03:11:12;;;;;;;10.68;9.52;;;;;;;;;;5057814;28;20032;-63
2021/06/13 03:13:39;;;;;;;9.90;8.90;;;;;;;;;;5051828;28;20037;-63
2021/06/13 03:16:07;;;;;;;9.15;8.25;;;;;;;;;;5068484;28;20024;-73
2021/06/13 03:18:34;;;;;;;11.52;8.70;;;;;;;;;;5064335;28;20075;-63
2021/06/13 03:21:00;;;;;;;10.10;9.05;;;;;;;;;;5079213;28;20076;-73
2021/06/13 03:23:29;;;;;;;10.57;9.02;;;;;;;;;;5069348;28;20036;-73
2021/06/13 03:28:56;;;;;;;12.07;9.25;;;;;;;;;;5210204;22;20038;-64
2021/06/13 03:31:22;;;;;;;12.38;10.55;;;;;;;;;;5108290;28;20059;-66
2021/06/13 03:33:49;;;;;;;11.95;9.27;;;;;;;;;;5110669;28;20080;-63
2021/06/13 03:36:17;;;;;;;9.98;8.98;;;;;;;;;;5111759;28;20497;-70
2021/06/13 03:38:44;;;;;;;10.93;9.77;;;;;;;;;;5109072;28;20054;-72
2021/06/13 03:41:13;;;;;;;12.45;9.75;;;;;;;;;;5110690;28;20065;-63
2021/06/13 03:43:39;;;;;;;13.00;10.88;;;;;;;;;;5105912;28;20024;-70
2021/06/13 03:46:05;;;;;;;13.45;9.95;;;;;;;;;;5112295;28;20031;-64
2021/06/13 03:48:32;;;;;;;13.57;11.27;;;;;;;;;;5110509;28;20107;-70
2021/06/13 03:50:59;;;;;;;12.32;11.00;;;;;;;;;;5111594;28;20068;-71
2021/06/13 03:53:27;;;;;;;15.35;10.50;;;;;;;;;;5109421;28;20165;-72
2021/06/13 03:55:54;;;;;;;12.75;11.38;;;;;;;;;;5115382;28;20022;-71
2021/06/13 03:58:25;;;;;;;15.40;12.88;;;;;;;;;;5114645;28;20027;-63
2021/06/13 04:00:52;;;;;;;13.25;11.27;;;;;;;;;;5096825;28;20024;-71
2021/06/13 04:03:20;;;;;;;11.43;10.05;;;;;;;;;;5113532;28;20024;-67
2021/06/13 04:05:47;;;;;;;11.80;10.60;;;;;;;;;;5115352;28;20020;-72
2021/06/13 04:08:14;;;;;;;13.27;10.65;;;;;;;;;;5114102;27;20040;-71
2021/06/13 04:10:42;;;;;;;11.63;10.43;;;;;;;;;;5113532;28;20089;-71
2021/06/13 04:13:08;;;;;;;10.63;9.52;;;;;;;;;;5111153;28;20024;-72
2021/06/13 04:15:34;;;;;;;10.20;9.20;;;;;;;;;;5115008;28;20064;-72
2021/06/13 04:18:01;;;;;;;11.98;9.68;;;;;;;;;;5114851;28;20032;-72
2021/06/13 04:20:27;;;;;;;10.93;9.25;;;;;;;;;;5104807;28;20027;-70
2021/06/13 04:22:53;;;;;;;11.15;9.95;;;;;;;;;;5114037;28;20165;-71
2021/06/13 04:25:20;;;;;;;10.27;9.10;;;;;;;;;;5112249;28;20024;-71
2021/06/13 04:27:48;;;;;;;11.85;9.43;;;;;;;;;;5119383;27;20051;-72
2021/06/13 04:30:14;;;;;;;11.07;8.85;;;;;;;;;;5132293;27;20037;-66
2021/06/13 04:32:40;;;;;;;10.80;9.30;;;;;;;;;;5122553;27;20019;-69
2021/06/13 04:35:06;;;;;;;9.75;8.75;;;;;;;;;;5130410;27;20023;-73
2021/06/13 04:37:33;;;;;;;10.55;9.45;;;;;;;;;;5120160;27;20024;-72
2021/06/13 04:39:59;;;;;;;11.70;9.60;;;;;;;;;;5125963;27;20434;-63
2021/06/13 04:42:25;;;;;;;10.77;8.98;;;;;;;;;;5118348;27;20020;-73
2021/06/13 04:44:51;;;;;;;11.23;9.05;;;;;;;;;;5123199;27;20023;-69
2021/06/13 04:47:17;;;;;;;10.77;9.73;;;;;;;;;;5117826;27;20035;-72
2021/06/13 04:49:44;;;;;;;10.95;9.68;;;;;;;;;;5116063;27;20102;-63
2021/06/13 04:52:13;;;;;;;12.80;9.68;;;;;;;;;;5118855;27;20023;-65
2021/06/13 04:54:46;;;;;;;11.45;9.18;;;;;;;;;;5116854;27;20020;-73
2021/06/13 04:57:12;;;;;;;;;;;;;;;;;;5124381;27;20488;-72
2021/06/13 04:59:38;;;;;;;12.60;9.77;;;;;;;;;;5119802;27;19968;-69
2021/06/13 05:02:04;;;;;;;11.95;9.80;;;;;;;;;;5119880;27;20375;-69
2021/06/13 05:04:30;;;;;;;13.65;10.57;;;;;;;;;;5120278;27;20020;-72
2021/06/13 05:06:56;;;;;;;10.27;9.13;;;;;;;;;;5122233;27;20077;-70
2021/06/13 05:09:22;;;;;;;15.05;9.88;;;;;;;;;;5125370;27;20011;-72
2021/06/13 05:11:50;;;;;;;15.18;11.48;;;;;;;;;;5123277;27;20384;-70
2021/06/13 05:14:16;;;;;;;12.15;10.45;;;;;;;;;;5125644;27;20139;-63
2021/06/13 05:16:42;;;;;;;12.40;10.82;;;;;;;;;;5124275;27;20030;-63
2021/06/13 05:19:09;;;;;;;11.55;10.35;;;;;;;;;;5126160;27;20020;-72
2021/06/13 05:21:35;;;;;;;12.10;10.32;;;;;;;;;;5118734;27;20042;-70
2021/06/13 05:24:01;;;;;;;12.77;9.55;;;;;;;;;;5122263;27;20467;-72
2021/06/13 05:26:31;;;;;;;11.98;10.30;;;;;;;;;;5119446;27;20039;-72
2021/06/13 05:28:57;;;;;;;13.68;11.25;;;;;;;;;;5122092;27;20050;-70
2021/06/13 05:31:23;;;;;;;15.60;11.23;;;;;;;;;;5113924;28;20023;-72
2021/06/13 05:33:50;;;;;;;14.50;11.18;;;;;;;;;;5126474;27;20392;-63
2021/06/13 05:36:16;;;;;;;12.20;11.07;;;;;;;;;;5124359;27;20031;-72
2021/06/13 05:38:44;;;;;;;12.88;10.85;;;;;;;;;;5126205;27;20649;-73
2021/06/13 05:41:12;;;;;;;11.38;10.15;;;;;;;;;;5129882;27;20114;-71
2021/06/13 05:43:38;;;;;;;13.73;11.05;;;;;;;;;;5122008;27;20019;-73
2021/06/13 05:46:04;;;;;;;13.82;10.32;;;;;;;;;;5114653;27;20651;-73
2021/06/13 05:48:30;;;;;;;11.93;10.63;;;;;;;;;;5118449;27;20536;-63
2021/06/13 05:50:57;;;;;;;11.32;10.13;;;;;;;;;;5123861;27;20106;-74
2021/06/13 05:53:23;;;;;;;13.10;9.95;;;;;;;;;;5120453;27;20035;-72
2021/06/13 05:55:49;;;;;;;13.60;10.00;;;;;;;;;;5119236;27;20015;-74
2021/06/13 05:58:15;;;;;;;11.23;9.05;;;;;;;;;;5117060;27;20488;-73
2021/06/13 06:00:41;;;;;;;12.40;8.40;;;;;;;;;;5123302;27;20033;-75
2021/06/13 06:03:07;;;;;;;10.73;9.65;;;;;;;;;;5118427;27;20035;-74
2021/06/13 06:05:34;;;;;;;11.60;7.97;;;;;;;;;;5126735;27;20037;-75
2021/06/13 06:08:00;;;;;;;9.50;8.48;;;;;;;;;;5129961;27;20111;-73
2021/06/13 06:10:27;;;;;;;10.65;8.25;;;;;;;;;;5115696;27;20080;-73
2021/06/13 06:12:55;;;;;;;10.07;7.07;;;;;;;;;;5130007;27;20030;-64
2021/06/13 06:15:21;;;;;;;9.85;7.22;;;;;;;;;;5123288;27;20019;-74
2021/06/13 06:17:48;;;;;;;11.23;7.53;;;;;;;;;;5130430;27;20027;-71
2021/06/13 06:20:15;;;;;;;13.85;7.47;;;;;;;;;;5132712;27;20023;-74
2021/06/13 06:22:41;;;;;;;9.90;6.63;;;;;;;;;;5130987;27;20026;-73
2021/06/13 06:25:08;;;;;;;10.02;6.53;;;;;;;;;;5133216;27;20422;-73
2021/06/13 06:27:34;;;;;;;10.50;7.00;;;;;;;;;;5131773;27;20027;-70
2021/06/13 06:30:00;;;;;;;8.07;6.28;;;;;;;;;;5120512;27;20058;-73
2021/06/13 06:32:27;;;;;;;7.47;5.70;;;;;;;;;;5131760;27;20024;-73
2021/06/13 06:34:53;;;;;;;7.75;5.30;;;;;;;;;;5125633;27;20072;-71
2021/06/13 06:37:19;;;;;;;8.45;5.28;;;;;;;;;;5127553;27;20384;-72
2021/06/13 06:39:45;;;;;;;7.53;5.32;;;;;;;;;;5129530;27;20098;-74
2021/06/13 06:42:11;;;;;;;6.35;5.30;;;;;;;;;;5128061;27;21403;-73
2021/06/13 06:44:37;;;;;;;7.30;4.70;;;;;;;;;;5130200;27;20059;-68
2021/06/13 06:47:03;;;;;;;9.45;4.68;;;;;;;;;;5123237;27;20038;-73
2021/06/13 06:49:30;;;;;;;8.90;4.95;;;;;;;;;;5125185;28;20023;-73
2021/06/13 06:51:56;;;;;;;8.68;5.20;;;;;;;;;;5107075;28;20369;-70
2021/06/13 06:54:22;;;;;;;6.75;4.60;;;;;;;;;;5125357;28;20038;-74
2021/06/13 06:56:48;;;;;;;7.82;4.68;;;;;;;;;;5130983;28;20031;-74
2021/06/13 06:59:14;;;;;;;8.57;4.50;;;;;;;;;;5128188;28;20089;-74
2021/06/13 07:01:40;;;;;;;8.98;4.57;;;;;;;;;;5122989;28;20051;-76
2021/06/13 07:04:06;;;;;;;7.72;4.22;;;;;;;;;;5124096;28;20027;-77
2021/06/13 07:06:33;;;;;;;5.85;4.40;;;;;;;;;;5129651;28;20571;-77
2021/06/13 07:08:59;;;;;;;7.90;4.20;;;;;;;;;;5131169;27;20371;-75
2021/06/13 07:11:25;;;;;;;8.90;4.43;;;;;;;;;;5130563;27;20103;-75
2021/06/13 07:13:51;;;;;;;10.82;4.50;;;;;;;;;;5130747;28;20069;-73
2021/06/13 07:16:17;;;;;;;6.07;4.35;;;;;;;;;;5131656;28;20031;-75
2021/06/13 07:18:43;;;;;;;7.32;4.47;;;;;;;;;;5127948;28;20552;-72
2021/06/13 07:21:10;;;;;;;9.50;4.93;;;;;;;;;;5128598;28;20030;-73
2021/06/13 07:23:36;;;;;;;7.55;4.65;;;;;;;;;;5128267;28;20027;-75
2021/06/13 07:26:03;;;;;;;5.75;3.92;;;;;;;;;;5134400;27;20039;-74
2021/06/13 07:28:31;;;;;;;7.95;4.45;;;;;;;;;;5125302;27;20487;-75
2021/06/13 07:30:58;;;;;;;8.85;4.40;;;;;;;;;;5133241;27;20079;-76
2021/06/13 07:33:25;;;;;;;5.65;3.90;;;;;;;;;;5131243;27;20026;-75
2021/06/13 07:35:51;;;;;;;7.63;3.75;;;;;;;;;;5128813;27;20509;-72
2021/06/13 07:38:17;;;;;;;9.75;3.95;;;;;;;;;;5130848;27;20185;-75
2021/06/13 07:40:43;;;;;;;7.28;4.00;;;;;;;;;;5133880;27;20412;-75
2021/06/13 07:43:10;;;;;;;6.63;3.67;;;;;;;;;;5127624;27;20383;-78
2021/06/13 07:45:36;;;;;;;6.00;3.65;;;;;;;;;;5132955;27;20085;-65
2021/06/13 07:48:05;;;;;;;7.82;3.75;;;;;;;;;;5132203;27;20031;-63
2021/06/13 07:50:31;;;;;;;6.05;3.60;;;;;;;;;;5131345;27;20030;-70
2021/06/13 07:52:57;;;;;;;9.00;3.90;;;;;;;;;;5139663;27;20395;-70
2021/06/13 07:55:23;;;;;;;5.88;3.78;;;;;;;;;;5145218;27;20068;-70
2021/06/13 07:57:49;;;;;;;5.93;3.75;;;;;;;;;;5138465;27;20506;-75
2021/06/13 08:00:19;;;;;;;6.55;3.40;;;;;;;;;;5134173;27;20399;-65
2021/06/13 08:02:47;;;;;;;6.15;3.25;;;;;;;;;;5131489;27;20471;-78
2021/06/13 08:05:16;;;;;;;7.47;3.40;;;;;;;;;;5134206;27;20052;-79
2021/06/13 08:07:42;;;;;;;7.50;3.75;;;;;;;;;;5129129;27;20047;-71
2021/06/13 08:10:09;;;;;;;7.15;3.13;;;;;;;;;;5134466;27;20459;-67
2021/06/13 08:12:36;;;;;;;6.25;3.20;;;;;;;;;;5110222;27;20027;-73
2021/06/13 08:15:02;;;;;;;6.53;3.45;;;;;;;;;;5145306;27;20051;-62
2021/06/13 08:17:28;;;;;;;6.40;3.38;;;;;;;;;;5136498;27;20015;-73
2021/06/13 08:19:54;;;;;;;6.50;3.40;;;;;;;;;;5129348;27;20015;-72
2021/06/13 08:22:20;;;;;;;5.75;3.30;;;;;;;;;;5121922;27;20494;-73
2021/06/13 08:24:46;;;;;;;6.25;3.20;;;;;;;;;;5127389;27;20022;-68
2021/06/13 08:27:12;;;;;;;6.57;3.03;;;;;;;;;;5107651;27;20473;-64
2021/06/13 08:29:40;;;;;;;4.35;2.55;;;;;;;;;;5133612;27;20058;-79
2021/06/13 08:32:07;;;;;;;6.97;2.65;;;;;;;;;;5130843;27;20476;-69
2021/06/13 08:34:33;;;;;;;7.38;2.92;;;;;;;;;;5131290;27;20020;-73
2021/06/13 08:36:59;;;;;;;5.30;2.30;;;;;;;;;;5128885;27;20019;-74
2021/06/13 08:39:25;;;;;;;7.15;2.63;;;;;;;;;;5115706;27;20011;-75
2021/06/13 08:41:51;;;;;;;11.02;3.28;;;;;;;;;;5126397;27;20384;-75
2021/06/13 08:44:18;;;;;;;7.07;2.65;;;;;;;;;;5125269;27;20380;-70
2021/06/13 08:46:44;;;;;;;6.60;2.60;;;;;;;;;;5127790;27;20085;-73
2021/06/13 08:49:10;;;;;;;10.82;2.60;;;;;;;;;;5133414;27;20079;-76
2021/06/13 08:51:38;;;;;;;4.47;2.35;;;;;;;;;;5130148;27;20020;-72
2021/06/13 08:54:04;;;;;;;8.38;2.33;;;;;;;;;;5114751;27;20371;-69
2021/06/13 08:56:30;;;;;;;7.38;2.47;;;;;;;;;;5124280;27;20026;-72
2021/06/13 08:58:57;;;;;;;8.82;2.40;;;;;;;;;;5128308;27;20023;-75
2021/06/13 09:01:23;;;;;;;9.45;2.50;;;;;;;;;;5133373;27;20075;-73
2021/06/13 09:03:49;;;;;;;7.25;2.70;;;;;;;;;;5122699;27;20540;-72
2021/06/13 09:06:15;;;;;;;10.55;2.78;;;;;;;;;;5132651;27;20127;-69
2021/06/13 09:08:42;;;;;;;9.15;2.30;;;;;;;;;;5129255;27;20051;-73
2021/06/13 09:11:10;;;;;;;6.25;2.47;;;;;;;;;;5131864;27;20031;-69
2021/06/13 09:13:37;;;;;;;5.00;2.20;;;;;;;;;;5136695;27;20023;-72
2021/06/13 09:16:05;;;;;;;7.47;2.10;;;;;;;;;;5134132;27;20015;-75
2021/06/13 09:18:37;;;;;;;7.38;2.20;;;;;;;;;;5129869;27;20389;-70
2021/06/13 09:21:05;;;;;;;8.43;2.40;;;;;;;;;;5129820;27;20471;-70
2021/06/13 09:23:34;;;;;;;6.25;2.30;;;;;;;;;;5134198;27;20023;-71
2021/06/13 09:26:02;;;;;;;10.73;2.30;;;;;;;;;;5128372;27;20031;-71
2021/06/13 09:28:30;;;;;;;7.75;2.10;;;;;;;;;;5130921;27;20071;-71
2021/06/13 09:30:56;;;;;;;4.93;2.30;;;;;;;;;;5129056;27;20527;-72
2021/06/13 09:33:27;;;;;;;7.13;2.17;;;;;;;;;;5131906;27;20027;-71
2021/06/13 09:35:54;;;;;;;6.68;2.15;;;;;;;;;;5133649;27;20457;-70
2021/06/13 09:38:24;;;;;;;5.65;2.30;;;;;;;;;;5123361;27;20023;-71
2021/06/13 09:40:56;;;;;;;8.95;2.65;;;;;;;;;;5120477;27;20055;-72
2021/06/13 09:43:24;;;;;;;7.32;2.40;;;;;;;;;;5126320;27;20031;-63
2021/06/13 09:45:54;;;;;;;6.28;2.60;;;;;;;;;;5126835;27;20039;-70
2021/06/13 09:48:20;;;;;;;4.68;2.20;;;;;;;;;;5132217;27;20031;-71
2021/06/13 09:50:48;;;;;;;7.10;2.33;;;;;;;;;;5130115;27;20531;-69
2021/06/13 09:53:20;;;;;;;3.95;2.40;;;;;;;;;;5128666;27;20026;-67
2021/06/13 09:55:47;;;;;;;6.70;2.88;;;;;;;;;;5131239;27;20020;-64
2021/06/13 09:58:16;;;;;;;7.10;3.75;;;;;;;;;;5129263;27;20507;-67
2021/06/13 10:00:42;;;;;;;6.47;2.22;;;;;;;;;;5133505;27;20038;-64
2021/06/13 10:03:25;;;;;;;12.70;4.00;;;;;;;;;;5122228;27;20027;-65
2021/06/13 10:05:57;;;;;;;8.38;2.58;;;;;;;;;;5123054;27;20074;-70
2021/06/13 10:08:27;;;;;;;11.32;3.22;;;;;;;;;;5132077;27;20109;-71
2021/06/13 10:10:54;;;;;;;8.77;2.45;;;;;;;;;;5123171;27;20019;-68
2021/06/13 10:13:20;;;;;;;8.60;2.40;;;;;;;;;;5130705;27;20023;-71
2021/06/13 10:15:50;;;;;;;8.55;2.92;;;;;;;;;;5120553;27;20027;-71
2021/06/13 10:18:19;;;;;;;9.52;3.22;;;;;;;;;;5114532;27;20028;-71
2021/06/13 10:20:46;;;;;;;10.88;3.40;;;;;;;;;;5118706;27;20034;-70
2021/06/13 10:23:12;;;;;;;5.32;2.38;;;;;;;;;;5131636;27;20094;-70
2021/06/13 10:25:38;;;;;;;6.32;2.40;;;;;;;;;;5132014;27;20115;-67
2021/06/13 10:28:04;;;;;;;11.05;4.75;;;;;;;;;;5108486;27;20066;-63
2021/06/13 10:30:30;;;;;;;7.50;2.65;;;;;;;;;;5130167;27;20026;-71
2021/06/13 10:32:56;;;;;;;6.57;2.60;;;;;;;;;;5132138;27;20552;-70
2021/06/13 10:35:22;;;;;;;13.05;4.53;;;;;;;;;;5129149;27;20526;-69
2021/06/13 10:37:49;;;;;;;6.45;2.58;;;;;;;;;;5129920;27;20068;-71
2021/06/13 10:40:16;;;;;;;7.47;2.70;;;;;;;;;;5125109;27;20019;-71
2021/06/13 10:42:42;;;;;;;8.13;2.92;;;;;;;;;;5131357;27;20019;-63
2021/06/13 10:45:10;;;;;;;8.90;3.65;;;;;;;;;;5132546;27;20413;-71
2021/06/13 10:47:37;;;;;;;8.80;3.53;;;;;;;;;;5129784;27;20031;-73
2021/06/13 10:50:09;;;;;;;6.80;2.35;;;;;;;;;;5125555;28;20023;-73
2021/06/13 10:52:35;;;;;;;8.88;4.47;;;;;;;;;;5131545;27;20102;-72
2021/06/13 10:55:06;;;;;;;11.23;3.80;;;;;;;;;;5132667;27;20054;-72
2021/06/13 10:57:34;;;;;;;8.45;3.05;;;;;;;;;;5133854;27;20206;-73
2021/06/13 11:00:07;;;;;;;8.68;3.35;;;;;;;;;;5132141;27;20433;-73
2021/06/13 11:02:39;;;;;;;4.15;2.20;;;;;;;;;;5125678;27;20034;-72
2021/06/13 11:05:07;;;;;;;9.73;2.58;;;;;;;;;;5131035;27;20092;-70
2021/06/13 11:07:38;;;;;;;6.10;2.63;;;;;;;;;;5131838;27;20035;-67
2021/06/13 11:10:05;;;;;;;5.97;2.55;;;;;;;;;;5131302;27;20066;-71
2021/06/13 11:12:51;;;;;;;6.65;2.97;;;;;;;;;;5120795;27;20027;-68
2021/06/13 11:15:41;;;;;;;7.70;2.58;;;;;;;;;;5135105;27;20030;-74
2021/06/13 11:18:20;;;;;;;7.20;3.30;;;;;;;;;;5130699;27;20019;-77
2021/06/13 11:20:48;;;;;;;42.95;31.38;;;;;;;;;;5131753;27;20027;-65
2021/06/13 11:23:35;;;;;;;22.30;15.77;;;;;;;;;;5130797;27;20035;-73
2021/06/13 11:26:03;;;;;;;18.80;12.38;;;;;;;;;;5127677;27;20054;-75
2021/06/13 11:28:30;;;;;;;32.58;25.15;;;;;;;;;;5115056;27;20039;-70
2021/06/13 11:30:59;;;;;;;10.38;7.50;;;;;;;;;;5130512;27;20027;-74
2021/06/13 11:33:34;;;;;;;19.10;10.98;;;;;;;;;;5131231;27;20487;-69
2021/06/13 11:36:01;;;;;;;11.10;4.70;;;;;;;;;;5127666;27;20022;-71
2021/06/13 11:38:28;;;;;;;13.48;6.65;;;;;;;;;;5130844;27;20023;-74
2021/06/13 11:40:56;;;;;;;17.70;9.70;;;;;;;;;;5136043;27;20019;-70
2021/06/13 11:43:24;;;;;;;10.57;4.32;;;;;;;;;;5130944;27;20484;-67
2021/06/13 11:45:56;;;;;;;14.30;7.93;;;;;;;;;;5133457;27;20141;-73
2021/06/13 11:48:27;;;;;;;14.68;10.02;;;;;;;;;;5133083;27;20066;-73
2021/06/13 11:51:12;;;;;;;6.18;3.58;;;;;;;;;;5134901;27;20425;-73
2021/06/13 11:53:50;;;;;;;31.17;22.95;;;;;;;;;;5129382;27;20037;-71
2021/06/13 11:56:32;;;;;;;16.52;5.70;;;;;;;;;;5128595;27;20432;-73
2021/06/13 11:58:59;;;;;;;12.40;6.60;;;;;;;;;;5135220;27;20106;-74
2021/06/13 12:01:25;;;;;;;11.30;7.28;;;;;;;;;;5124845;27;20083;-73
2021/06/13 12:03:51;;;;;;;19.70;11.93;;;;;;;;;;5128668;27;20110;-73
2021/06/13 12:06:20;;;;;;;6.80;4.20;;;;;;;;;;5134715;27;20046;-73
2021/06/13 12:08:48;;;;;;;10.02;5.65;;;;;;;;;;5127979;27;20019;-74
2021/06/13 12:11:32;;;;;;;10.60;4.40;;;;;;;;;;5133673;27;20027;-73
2021/06/13 12:13:59;;;;;;;15.70;7.72;;;;;;;;;;5134046;27;20026;-73
2021/06/13 12:16:27;;;;;;;14.75;5.75;;;;;;;;;;5132090;27;20019;-73
2021/06/13 12:19:04;;;;;;;7.20;3.30;;;;;;;;;;5134792;27;20022;-66
2021/06/13 12:21:31;;;;;;;7.53;3.63;;;;;;;;;;5111342;27;20387;-73
2021/06/13 12:24:10;;;;;;;11.55;4.90;;;;;;;;;;5138296;27;20054;-69
2021/06/13 12:29:27;;;;;;;16.83;7.05;;;;;;;;;;5135263;27;20050;-74
2021/06/13 12:31:54;;;;;;;11.85;4.93;;;;;;;;;;5135374;27;20016;-72
2021/06/13 12:34:21;;;;;;;18.90;11.18;;;;;;;;;;5131282;27;20031;-71
2021/06/13 12:36:50;;;;;;;8.75;3.28;;;;;;;;;;5125710;27;20019;-74
2021/06/13 12:39:29;;;;;;;10.52;2.70;;;;;;;;;;5125685;27;20123;-73
2021/06/13 12:42:12;;;;;;;32.28;22.00;;;;;;;;;;5112727;27;20510;-74
2021/06/13 12:44:39;;;;;;;8.65;2.92;;;;;;;;;;5118460;27;20385;-74
2021/06/13 12:47:06;;;;;;;6.68;2.85;;;;;;;;;;5129740;27;20069;-74
2021/06/13 12:49:43;;;;;;;15.32;9.85;;;;;;;;;;5129585;27;20016;-74
2021/06/13 12:52:16;;;;;;;12.68;3.88;;;;;;;;;;5120538;27;20050;-73
2021/06/13 12:54:43;;;;;;;6.68;4.30;;;;;;;;;;5132054;27;20034;-73
2021/06/13 12:57:10;;;;;;;13.07;3.97;;;;;;;;;;5130529;27;20023;-64
2021/06/13 12:59:39;;;;;;;18.08;8.98;;;;;;;;;;5133516;27;20045;-73
2021/06/13 13:02:09;;;;;;;13.07;8.32;;;;;;;;;;5126359;27;20019;-74
2021/06/13 13:04:41;;;;;;;5.63;3.50;;;;;;;;;;5138838;27;20023;-74
2021/06/13 13:07:07;;;;;;;7.20;3.70;;;;;;;;;;5141418;27;20031;-73
2021/06/13 13:09:33;;;;;;;7.05;3.55;;;;;;;;;;5137853;27;20099;-72
2021/06/13 13:12:02;;;;;;;16.50;4.90;;;;;;;;;;5137262;27;20026;-70
2021/06/13 13:14:28;;;;;;;11.15;6.70;;;;;;;;;;5138735;27;20380;-72
2021/06/13 13:16:54;;;;;;;11.50;6.80;;;;;;;;;;5115103;27;20023;-73
2021/06/13 13:19:30;;;;;;;10.10;5.45;;;;;;;;;;5132144;27;20040;-73
2021/06/13 13:21:56;;;;;;;10.48;6.20;;;;;;;;;;5127317;27;20032;-73
2021/06/13 13:24:33;;;;;;;10.13;6.43;;;;;;;;;;5132756;27;20027;-65
2021/06/13 13:27:07;;;;;;;37.72;27.58;;;;;;;;;;5136161;27;20055;-74
2021/06/13 13:29:44;;;;;;;13.57;7.10;;;;;;;;;;5122129;27;20110;-73
2021/06/13 13:32:11;;;;;;;18.42;13.75;;;;;;;;;;5134760;27;20026;-73
2021/06/13 13:34:37;;;;;;;20.15;14.65;;;;;;;;;;5117537;27;20027;-73
2021/06/13 13:37:04;;;;;;;13.95;6.75;;;;;;;;;;5129318;27;20031;-72
2021/06/13 13:39:30;;;;;;;9.95;5.25;;;;;;;;;;5119910;27;20377;-72
2021/06/13 13:42:01;;;;;;;36.65;20.00;;;;;;;;;;5108662;27;20361;-65
2021/06/13 13:44:29;;;;;;;23.15;11.75;;;;;;;;;;5125058;27;20023;-71
2021/06/13 13:47:06;;;;;;;6.90;3.88;;;;;;;;;;5126408;27;20035;-73
2021/06/13 13:49:32;;;;;;;7.55;3.20;;;;;;;;;;5135562;27;20075;-73
2021/06/13 13:51:59;;;;;;;4.75;2.95;;;;;;;;;;5139501;27;20126;-74
2021/06/13 13:54:25;;;;;;;8.30;3.72;;;;;;;;;;5131801;27;20431;-66
2021/06/13 13:56:52;;;;;;;21.90;15.40;;;;;;;;;;5130410;27;20031;-73
2021/06/13 13:59:18;;;;;;;5.65;3.10;;;;;;;;;;5132544;27;20437;-73
2021/06/13 14:01:45;;;;;;;5.40;2.10;;;;;;;;;;5144915;27;20071;-71
2021/06/13 14:04:11;;;;;;;10.93;7.05;;;;;;;;;;5135206;27;20482;-74
2021/06/13 14:06:37;;;;;;;10.77;4.47;;;;;;;;;;5128181;27;20035;-74
2021/06/13 14:09:03;;;;;;;11.35;2.72;;;;;;;;;;5122543;27;20099;-72
2021/06/13 14:11:29;;;;;;;6.65;2.60;;;;;;;;;;5132631;27;20482;-69
2021/06/13 14:13:55;;;;;;;11.80;3.10;;;;;;;;;;5126472;27;20088;-74
2021/06/13 14:16:21;;;;;;;8.48;2.60;;;;;;;;;;5122227;27;20045;-64
2021/06/13 14:18:47;;;;;;;4.85;2.47;;;;;;;;;;5129057;27;20019;-71
2021/06/13 14:21:14;;;;;;;3.47;2.33;;;;;;;;;;5127882;27;20572;-65
2021/06/13 14:23:40;;;;;;;6.13;2.38;;;;;;;;;;5123022;27;20034;-73
2021/06/13 14:26:06;;;;;;;5.47;2.10;;;;;;;;;;5129438;27;20627;-64
2021/06/13 14:28:34;;;;;;;7.82;2.65;;;;;;;;;;5135518;27;20055;-68
2021/06/13 14:31:00;;;;;;;7.38;2.35;;;;;;;;;;5115661;27;20555;-73
2021/06/13 14:33:26;;;;;;;6.38;2.60;;;;;;;;;;5137851;27;20030;-73
2021/06/13 14:35:52;;;;;;;7.97;2.80;;;;;;;;;;5132239;27;20032;-73
2021/06/13 14:38:18;;;;;;;5.53;2.35;;;;;;;;;;5131902;27;20400;-74
2021/06/13 14:40:45;;;;;;;20.27;7.72;;;;;;;;;;5124900;27;21930;-65
2021/06/13 14:43:14;;;;;;;17.75;9.15;;;;;;;;;;5130766;27;20019;-65
2021/06/13 14:45:40;;;;;;;19.17;9.45;;;;;;;;;;5129930;27;20015;-75